sensor_id;sensor_type;location;lat;lon;timestamp;P1;durP1;ratioP1;P2;durP2;ratioP2
50301;SDS011;36550;50.472;19.744;2023-05-10T00:03:03;7.30;;;3.80;;
50301;SDS011;36550;50.472;19.744;2023-05-10T00:06:48;10.30;;;3.60;;
50301;SDS011;36550;50.472;19.744;2023-05-10T00:10:32;9.40;;;3.80;;
50301;SDS011;36550;50.472;19.744;2023-05-10T00:14:16;6.90;;;3.70;;
50301;SDS011;36550;50.472;19.744;2023-05-10T00:18:01;7.00;;;3.70;;
50301;SDS011;36550;50.472;19.744;2023-05-10T00:21:45;6.60;;;3.90;;
50301;SDS011;36550;50.472;19.744;2023-05-10T00:25:30;7.10;;;3.60;;
50301;SDS011;36550;50.472;19.744;2023-05-10T00:29:14;7.20;;;4.20;;
50301;SDS011;36550;50.472;19.744;2023-05-10T00:32:58;7.10;;;3.70;;
50301;SDS011;36550;50.472;19.744;2023-05-10T00:36:43;10.60;;;4.00;;
50301;SDS011;36550;50.472;19.744;2023-05-10T00:40:27;9.90;;;4.40;;
50301;SDS011;36550;50.472;19.744;2023-05-10T00:44:12;9.90;;;3.90;;
50301;SDS011;36550;50.472;19.744;2023-05-10T00:47:57;6.70;;;4.20;;
50301;SDS011;36550;50.472;19.744;2023-05-10T00:51:42;9.30;;;3.90;;
50301;SDS011;36550;50.472;19.744;2023-05-10T00:55:26;8.50;;;4.10;;
50301;SDS011;36550;50.472;19.744;2023-05-10T00:59:10;7.40;;;3.60;;
50301;SDS011;36550;50.472;19.744;2023-05-10T01:02:54;6.90;;;3.80;;
50301;SDS011;36550;50.472;19.744;2023-05-10T01:06:40;10.10;;;4.30;;
50301;SDS011;36550;50.472;19.744;2023-05-10T01:10:24;7.90;;;4.20;;
50301;SDS011;36550;50.472;19.744;2023-05-10T01:14:08;7.10;;;4.00;;
50301;SDS011;36550;50.472;19.744;2023-05-10T01:17:52;10.00;;;3.90;;
50301;SDS011;36550;50.472;19.744;2023-05-10T01:21:38;8.50;;;3.90;;
50301;SDS011;36550;50.472;19.744;2023-05-10T01:33:33;10.70;;;4.60;;
50301;SDS011;36550;50.472;19.744;2023-05-10T01:37:28;7.80;;;4.30;;
50301;SDS011;36550;50.472;19.744;2023-05-10T01:45:02;11.20;;;4.90;;
50301;SDS011;36550;50.472;19.744;2023-05-10T01:48:47;10.40;;;4.80;;
50301;SDS011;36550;50.472;19.744;2023-05-10T01:52:33;11.00;;;5.30;;
50301;SDS011;36550;50.472;19.744;2023-05-10T01:56:15;11.50;;;5.30;;
50301;SDS011;36550;50.472;19.744;2023-05-10T02:00:01;9.00;;;4.70;;
50301;SDS011;36550;50.472;19.744;2023-05-10T02:03:43;7.20;;;4.30;;
50301;SDS011;36550;50.472;19.744;2023-05-10T02:07:28;8.20;;;4.80;;
50301;SDS011;36550;50.472;19.744;2023-05-10T02:11:13;10.00;;;5.30;;
50301;SDS011;36550;50.472;19.744;2023-05-10T02:14:59;10.10;;;5.30;;
50301;SDS011;36550;50.472;19.744;2023-05-10T02:18:43;8.80;;;5.30;;
50301;SDS011;36550;50.472;19.744;2023-05-10T02:22:27;10.50;;;5.80;;
50301;SDS011;36550;50.472;19.744;2023-05-10T02:26:11;12.80;;;6.50;;
50301;SDS011;36550;50.472;19.744;2023-05-10T02:29:55;11.90;;;6.20;;
50301;SDS011;36550;50.472;19.744;2023-05-10T02:33:40;10.90;;;5.90;;
50301;SDS011;36550;50.472;19.744;2023-05-10T02:37:25;8.00;;;4.60;;
50301;SDS011;36550;50.472;19.744;2023-05-10T02:41:09;8.80;;;4.60;;
50301;SDS011;36550;50.472;19.744;2023-05-10T02:44:54;10.40;;;5.20;;
50301;SDS011;36550;50.472;19.744;2023-05-10T02:48:38;14.10;;;6.00;;
50301;SDS011;36550;50.472;19.744;2023-05-10T02:52:29;11.30;;;5.80;;
50301;SDS011;36550;50.472;19.744;2023-05-10T02:56:11;10.60;;;4.80;;
50301;SDS011;36550;50.472;19.744;2023-05-10T02:59:54;8.80;;;5.40;;
50301;SDS011;36550;50.472;19.744;2023-05-10T03:03:38;9.70;;;5.20;;
50301;SDS011;36550;50.472;19.744;2023-05-10T03:07:22;7.10;;;4.80;;
50301;SDS011;36550;50.472;19.744;2023-05-10T03:15:00;9.00;;;4.60;;
50301;SDS011;36550;50.472;19.744;2023-05-10T03:18:48;9.00;;;4.60;;
50301;SDS011;36550;50.472;19.744;2023-05-10T03:22:32;10.20;;;5.30;;
50301;SDS011;36550;50.472;19.744;2023-05-10T03:26:20;12.30;;;4.80;;
50301;SDS011;36550;50.472;19.744;2023-05-10T03:30:02;13.20;;;6.10;;
50301;SDS011;36550;50.472;19.744;2023-05-10T03:33:49;9.90;;;5.80;;
50301;SDS011;36550;50.472;19.744;2023-05-10T03:37:34;9.40;;;5.10;;
50301;SDS011;36550;50.472;19.744;2023-05-10T03:41:18;5.10;;;3.20;;
50301;SDS011;36550;50.472;19.744;2023-05-10T03:45:02;10.40;;;3.90;;
50301;SDS011;36550;50.472;19.744;2023-05-10T03:48:47;7.20;;;4.70;;
50301;SDS011;36550;50.472;19.744;2023-05-10T03:52:31;11.10;;;5.10;;
50301;SDS011;36550;50.472;19.744;2023-05-10T03:56:16;8.80;;;5.60;;
50301;SDS011;36550;50.472;19.744;2023-05-10T04:00:00;9.50;;;5.20;;
50301;SDS011;36550;50.472;19.744;2023-05-10T04:03:45;8.10;;;4.90;;
50301;SDS011;36550;50.472;19.744;2023-05-10T04:07:29;6.90;;;4.10;;
50301;SDS011;36550;50.472;19.744;2023-05-10T04:11:13;12.40;;;5.30;;
50301;SDS011;36550;50.472;19.744;2023-05-10T04:14:58;10.70;;;6.30;;
50301;SDS011;36550;50.472;19.744;2023-05-10T04:18:43;11.90;;;6.80;;
50301;SDS011;36550;50.472;19.744;2023-05-10T04:22:27;11.40;;;6.20;;
50301;SDS011;36550;50.472;19.744;2023-05-10T04:26:12;10.70;;;5.80;;
50301;SDS011;36550;50.472;19.744;2023-05-10T04:29:57;12.80;;;7.40;;
50301;SDS011;36550;50.472;19.744;2023-05-10T04:33:42;9.80;;;6.40;;
50301;SDS011;36550;50.472;19.744;2023-05-10T04:37:26;8.80;;;4.30;;
50301;SDS011;36550;50.472;19.744;2023-05-10T04:41:11;8.90;;;4.60;;
50301;SDS011;36550;50.472;19.744;2023-05-10T04:44:56;7.20;;;4.00;;
50301;SDS011;36550;50.472;19.744;2023-05-10T04:48:40;7.70;;;4.10;;
50301;SDS011;36550;50.472;19.744;2023-05-10T04:52:06;6.60;;;3.90;;
50301;SDS011;36550;50.472;19.744;2023-05-10T04:55:50;5.30;;;3.80;;
50301;SDS011;36550;50.472;19.744;2023-05-10T04:59:35;7.90;;;3.90;;
50301;SDS011;36550;50.472;19.744;2023-05-10T05:03:19;12.00;;;3.80;;
50301;SDS011;36550;50.472;19.744;2023-05-10T05:07:03;7.30;;;3.90;;
50301;SDS011;36550;50.472;19.744;2023-05-10T05:10:48;6.80;;;3.60;;
50301;SDS011;36550;50.472;19.744;2023-05-10T05:14:33;5.90;;;3.40;;
50301;SDS011;36550;50.472;19.744;2023-05-10T05:18:17;9.10;;;3.50;;
50301;SDS011;36550;50.472;19.744;2023-05-10T05:22:01;8.20;;;3.50;;
50301;SDS011;36550;50.472;19.744;2023-05-10T05:25:46;4.90;;;3.00;;
50301;SDS011;36550;50.472;19.744;2023-05-10T05:29:30;5.20;;;3.40;;
50301;SDS011;36550;50.472;19.744;2023-05-10T05:33:15;9.10;;;3.80;;
50301;SDS011;36550;50.472;19.744;2023-05-10T05:36:59;7.50;;;3.70;;
50301;SDS011;36550;50.472;19.744;2023-05-10T05:40:43;7.30;;;3.50;;
50301;SDS011;36550;50.472;19.744;2023-05-10T05:44:27;7.70;;;3.70;;
50301;SDS011;36550;50.472;19.744;2023-05-10T05:48:12;5.50;;;3.30;;
50301;SDS011;36550;50.472;19.744;2023-05-10T05:52:00;5.90;;;3.20;;
50301;SDS011;36550;50.472;19.744;2023-05-10T05:55:56;5.90;;;3.50;;
50301;SDS011;36550;50.472;19.744;2023-05-10T05:59:39;7.70;;;3.40;;
50301;SDS011;36550;50.472;19.744;2023-05-10T06:03:24;7.80;;;3.90;;
50301;SDS011;36550;50.472;19.744;2023-05-10T06:07:08;7.30;;;3.70;;
50301;SDS011;36550;50.472;19.744;2023-05-10T06:10:52;6.00;;;3.70;;
50301;SDS011;36550;50.472;19.744;2023-05-10T06:14:24;7.30;;;3.20;;
50301;SDS011;36550;50.472;19.744;2023-05-10T06:18:08;7.00;;;4.10;;
50301;SDS011;36550;50.472;19.744;2023-05-10T06:21:53;6.60;;;3.60;;
50301;SDS011;36550;50.472;19.744;2023-05-10T06:26:06;6.20;;;3.90;;
50301;SDS011;36550;50.472;19.744;2023-05-10T06:29:36;7.70;;;3.80;;
50301;SDS011;36550;50.472;19.744;2023-05-10T06:33:21;9.00;;;4.20;;
50301;SDS011;36550;50.472;19.744;2023-05-10T06:37:05;9.50;;;4.10;;
50301;SDS011;36550;50.472;19.744;2023-05-10T06:40:50;8.50;;;3.50;;
50301;SDS011;36550;50.472;19.744;2023-05-10T06:44:34;8.10;;;3.90;;
50301;SDS011;36550;50.472;19.744;2023-05-10T06:48:18;6.90;;;4.00;;
50301;SDS011;36550;50.472;19.744;2023-05-10T06:52:03;8.20;;;4.00;;
50301;SDS011;36550;50.472;19.744;2023-05-10T06:55:48;6.40;;;3.30;;
50301;SDS011;36550;50.472;19.744;2023-05-10T06:59:32;8.90;;;3.60;;
50301;SDS011;36550;50.472;19.744;2023-05-10T07:03:16;5.60;;;3.70;;
50301;SDS011;36550;50.472;19.744;2023-05-10T07:07:01;7.10;;;3.20;;
50301;SDS011;36550;50.472;19.744;2023-05-10T07:10:46;6.10;;;4.00;;
50301;SDS011;36550;50.472;19.744;2023-05-10T07:14:17;9.80;;;3.90;;
50301;SDS011;36550;50.472;19.744;2023-05-10T07:18:01;4.60;;;3.30;;
50301;SDS011;36550;50.472;19.744;2023-05-10T07:21:46;9.00;;;4.00;;
50301;SDS011;36550;50.472;19.744;2023-05-10T07:25:30;7.00;;;4.00;;
50301;SDS011;36550;50.472;19.744;2023-05-10T07:29:15;7.00;;;4.20;;
50301;SDS011;36550;50.472;19.744;2023-05-10T07:33:00;6.80;;;3.60;;
50301;SDS011;36550;50.472;19.744;2023-05-10T07:36:44;6.20;;;3.60;;
50301;SDS011;36550;50.472;19.744;2023-05-10T07:40:29;7.50;;;3.60;;
50301;SDS011;36550;50.472;19.744;2023-05-10T07:44:13;8.10;;;4.10;;
50301;SDS011;36550;50.472;19.744;2023-05-10T07:47:57;5.60;;;3.50;;
50301;SDS011;36550;50.472;19.744;2023-05-10T07:51:42;5.60;;;3.70;;
50301;SDS011;36550;50.472;19.744;2023-05-10T07:55:26;6.70;;;3.40;;
50301;SDS011;36550;50.472;19.744;2023-05-10T07:59:23;8.10;;;5.40;;
50301;SDS011;36550;50.472;19.744;2023-05-10T08:03:07;7.30;;;3.80;;
50301;SDS011;36550;50.472;19.744;2023-05-10T08:06:51;4.90;;;3.40;;
50301;SDS011;36550;50.472;19.744;2023-05-10T08:10:36;10.10;;;3.70;;
50301;SDS011;36550;50.472;19.744;2023-05-10T08:14:20;5.50;;;4.00;;
50301;SDS011;36550;50.472;19.744;2023-05-10T08:18:05;5.80;;;3.60;;
50301;SDS011;36550;50.472;19.744;2023-05-10T08:21:49;6.70;;;3.30;;
50301;SDS011;36550;50.472;19.744;2023-05-10T08:25:14;7.10;;;3.50;;
50301;SDS011;36550;50.472;19.744;2023-05-10T08:28:58;5.10;;;3.60;;
50301;SDS011;36550;50.472;19.744;2023-05-10T08:32:43;4.50;;;2.90;;
50301;SDS011;36550;50.472;19.744;2023-05-10T08:36:27;6.70;;;3.00;;
50301;SDS011;36550;50.472;19.744;2023-05-10T08:40:12;5.50;;;3.40;;
50301;SDS011;36550;50.472;19.744;2023-05-10T08:43:56;6.30;;;3.50;;
50301;SDS011;36550;50.472;19.744;2023-05-10T08:47:41;5.20;;;3.30;;
50301;SDS011;36550;50.472;19.744;2023-05-10T08:51:25;8.10;;;3.60;;
50301;SDS011;36550;50.472;19.744;2023-05-10T08:55:10;5.20;;;3.50;;
50301;SDS011;36550;50.472;19.744;2023-05-10T08:58:55;5.40;;;3.10;;
50301;SDS011;36550;50.472;19.744;2023-05-10T09:02:39;4.80;;;3.40;;
50301;SDS011;36550;50.472;19.744;2023-05-10T09:06:24;7.00;;;3.10;;
50301;SDS011;36550;50.472;19.744;2023-05-10T09:10:09;5.90;;;3.50;;
50301;SDS011;36550;50.472;19.744;2023-05-10T09:13:53;7.10;;;3.30;;
50301;SDS011;36550;50.472;19.744;2023-05-10T09:17:41;7.10;;;2.90;;
50301;SDS011;36550;50.472;19.744;2023-05-10T09:21:25;4.50;;;2.90;;
50301;SDS011;36550;50.472;19.744;2023-05-10T09:25:10;4.00;;;2.50;;
50301;SDS011;36550;50.472;19.744;2023-05-10T09:28:55;10.40;;;2.40;;
50301;SDS011;36550;50.472;19.744;2023-05-10T09:32:48;5.80;;;2.10;;
50301;SDS011;36550;50.472;19.744;2023-05-10T09:36:23;3.50;;;2.20;;
50301;SDS011;36550;50.472;19.744;2023-05-10T09:40:18;3.90;;;2.00;;
50301;SDS011;36550;50.472;19.744;2023-05-10T09:44:01;4.90;;;2.40;;
50301;SDS011;36550;50.472;19.744;2023-05-10T09:47:45;3.40;;;2.20;;
50301;SDS011;36550;50.472;19.744;2023-05-10T09:51:29;3.40;;;2.30;;
50301;SDS011;36550;50.472;19.744;2023-05-10T09:55:23;5.40;;;2.20;;
50301;SDS011;36550;50.472;19.744;2023-05-10T09:59:08;4.70;;;2.20;;
50301;SDS011;36550;50.472;19.744;2023-05-10T10:02:33;4.90;;;2.00;;
50301;SDS011;36550;50.472;19.744;2023-05-10T10:06:18;3.60;;;2.00;;
50301;SDS011;36550;50.472;19.744;2023-05-10T10:10:02;3.10;;;1.60;;
50301;SDS011;36550;50.472;19.744;2023-05-10T10:13:50;3.30;;;1.90;;
50301;SDS011;36550;50.472;19.744;2023-05-10T10:17:35;4.40;;;2.30;;
50301;SDS011;36550;50.472;19.744;2023-05-10T10:21:19;8.00;;;2.00;;
50301;SDS011;36550;50.472;19.744;2023-05-10T10:25:04;2.90;;;2.10;;
50301;SDS011;36550;50.472;19.744;2023-05-10T10:29:13;4.60;;;2.00;;
50301;SDS011;36550;50.472;19.744;2023-05-10T10:33:01;4.40;;;2.00;;
50301;SDS011;36550;50.472;19.744;2023-05-10T10:36:43;4.10;;;1.70;;
50301;SDS011;36550;50.472;19.744;2023-05-10T10:40:30;2.90;;;1.80;;
50301;SDS011;36550;50.472;19.744;2023-05-10T10:44:28;4.70;;;1.80;;
50301;SDS011;36550;50.472;19.744;2023-05-10T10:48:20;4.30;;;2.00;;
50301;SDS011;36550;50.472;19.744;2023-05-10T10:56:02;4.60;;;1.60;;
50301;SDS011;36550;50.472;19.744;2023-05-10T10:59:43;3.30;;;1.70;;
50301;SDS011;36550;50.472;19.744;2023-05-10T11:04:16;4.20;;;1.70;;
50301;SDS011;36550;50.472;19.744;2023-05-10T11:07:50;5.90;;;1.80;;
50301;SDS011;36550;50.472;19.744;2023-05-10T11:11:24;3.90;;;1.60;;
50301;SDS011;36550;50.472;19.744;2023-05-10T11:15:14;4.20;;;1.60;;
50301;SDS011;36550;50.472;19.744;2023-05-10T11:19:07;4.20;;;1.70;;
50301;SDS011;36550;50.472;19.744;2023-05-10T11:22:53;3.50;;;1.40;;
50301;SDS011;36550;50.472;19.744;2023-05-10T11:26:36;3.40;;;1.60;;
50301;SDS011;36550;50.472;19.744;2023-05-10T11:30:21;4.90;;;1.80;;
50301;SDS011;36550;50.472;19.744;2023-05-10T11:34:06;2.60;;;1.80;;
50301;SDS011;36550;50.472;19.744;2023-05-10T11:37:51;4.10;;;1.50;;
50301;SDS011;36550;50.472;19.744;2023-05-10T11:41:35;2.20;;;1.40;;
50301;SDS011;36550;50.472;19.744;2023-05-10T11:45:19;5.00;;;1.50;;
50301;SDS011;36550;50.472;19.744;2023-05-10T11:49:07;7.60;;;1.70;;
50301;SDS011;36550;50.472;19.744;2023-05-10T11:52:57;4.00;;;1.60;;
50301;SDS011;36550;50.472;19.744;2023-05-10T11:56:44;2.80;;;1.60;;
50301;SDS011;36550;50.472;19.744;2023-05-10T12:00:29;2.60;;;1.30;;
50301;SDS011;36550;50.472;19.744;2023-05-10T12:04:14;7.80;;;1.80;;
50301;SDS011;36550;50.472;19.744;2023-05-10T12:08:21;2.60;;;1.40;;
50301;SDS011;36550;50.472;19.744;2023-05-10T12:11:44;3.60;;;1.50;;
50301;SDS011;36550;50.472;19.744;2023-05-10T12:15:28;4.40;;;1.50;;
50301;SDS011;36550;50.472;19.744;2023-05-10T12:19:12;2.50;;;1.70;;
50301;SDS011;36550;50.472;19.744;2023-05-10T12:23:03;2.20;;;1.40;;
50301;SDS011;36550;50.472;19.744;2023-05-10T12:26:47;3.20;;;1.60;;
50301;SDS011;36550;50.472;19.744;2023-05-10T12:30:32;2.70;;;1.50;;
50301;SDS011;36550;50.472;19.744;2023-05-10T12:38:29;2.20;;;1.40;;
50301;SDS011;36550;50.472;19.744;2023-05-10T12:42:10;5.30;;;1.30;;
50301;SDS011;36550;50.472;19.744;2023-05-10T12:45:55;2.00;;;1.40;;
50301;SDS011;36550;50.472;19.744;2023-05-10T12:49:39;2.50;;;1.60;;
50301;SDS011;36550;50.472;19.744;2023-05-10T12:53:24;2.40;;;1.60;;
50301;SDS011;36550;50.472;19.744;2023-05-10T12:57:08;4.20;;;1.60;;
50301;SDS011;36550;50.472;19.744;2023-05-10T13:00:53;2.40;;;1.40;;
50301;SDS011;36550;50.472;19.744;2023-05-10T13:04:37;3.60;;;1.60;;
50301;SDS011;36550;50.472;19.744;2023-05-10T13:08:22;2.10;;;1.60;;
50301;SDS011;36550;50.472;19.744;2023-05-10T13:12:07;2.10;;;1.40;;
50301;SDS011;36550;50.472;19.744;2023-05-10T13:15:51;5.40;;;1.60;;
50301;SDS011;36550;50.472;19.744;2023-05-10T13:19:36;3.30;;;1.50;;
50301;SDS011;36550;50.472;19.744;2023-05-10T13:23:20;2.40;;;1.30;;
50301;SDS011;36550;50.472;19.744;2023-05-10T13:27:04;3.00;;;1.50;;
50301;SDS011;36550;50.472;19.744;2023-05-10T13:30:49;4.00;;;1.50;;
50301;SDS011;36550;50.472;19.744;2023-05-10T13:34:34;4.90;;;1.80;;
50301;SDS011;36550;50.472;19.744;2023-05-10T13:38:18;3.10;;;1.70;;
50301;SDS011;36550;50.472;19.744;2023-05-10T13:42:06;2.20;;;1.50;;
50301;SDS011;36550;50.472;19.744;2023-05-10T13:45:47;2.20;;;1.30;;
50301;SDS011;36550;50.472;19.744;2023-05-10T13:49:32;3.30;;;1.80;;
50301;SDS011;36550;50.472;19.744;2023-05-10T13:53:17;3.70;;;1.60;;
50301;SDS011;36550;50.472;19.744;2023-05-10T13:57:01;3.10;;;1.50;;
50301;SDS011;36550;50.472;19.744;2023-05-10T14:00:46;3.00;;;1.40;;
50301;SDS011;36550;50.472;19.744;2023-05-10T14:04:30;1.80;;;1.40;;
50301;SDS011;36550;50.472;19.744;2023-05-10T14:08:15;4.50;;;1.60;;
50301;SDS011;36550;50.472;19.744;2023-05-10T14:10:59;3.10;;;1.60;;
50301;SDS011;36550;50.472;19.744;2023-05-10T14:14:43;3.60;;;1.60;;
50301;SDS011;36550;50.472;19.744;2023-05-10T14:18:28;4.30;;;1.80;;
50301;SDS011;36550;50.472;19.744;2023-05-10T14:22:12;2.30;;;1.30;;
50301;SDS011;36550;50.472;19.744;2023-05-10T14:25:56;2.20;;;1.50;;
50301;SDS011;36550;50.472;19.744;2023-05-10T14:29:41;3.10;;;1.40;;
50301;SDS011;36550;50.472;19.744;2023-05-10T14:33:22;3.10;;;1.20;;
50301;SDS011;36550;50.472;19.744;2023-05-10T14:37:09;5.10;;;1.70;;
50301;SDS011;36550;50.472;19.744;2023-05-10T14:40:51;4.40;;;1.70;;
50301;SDS011;36550;50.472;19.744;2023-05-10T14:44:35;4.20;;;1.60;;
50301;SDS011;36550;50.472;19.744;2023-05-10T14:48:20;2.30;;;1.20;;
50301;SDS011;36550;50.472;19.744;2023-05-10T14:55:46;2.70;;;1.50;;
50301;SDS011;36550;50.472;19.744;2023-05-10T14:59:31;2.30;;;1.50;;
50301;SDS011;36550;50.472;19.744;2023-05-10T15:03:15;4.40;;;1.50;;
50301;SDS011;36550;50.472;19.744;2023-05-10T15:06:39;5.70;;;1.50;;
50301;SDS011;36550;50.472;19.744;2023-05-10T15:10:23;2.30;;;1.50;;
50301;SDS011;36550;50.472;19.744;2023-05-10T15:14:08;3.50;;;1.70;;
50301;SDS011;36550;50.472;19.744;2023-05-10T15:17:52;3.60;;;1.50;;
50301;SDS011;36550;50.472;19.744;2023-05-10T15:21:36;5.00;;;1.60;;
50301;SDS011;36550;50.472;19.744;2023-05-10T15:25:21;2.80;;;1.70;;
50301;SDS011;36550;50.472;19.744;2023-05-10T15:28:34;12.00;;;1.90;;
50301;SDS011;36550;50.472;19.744;2023-05-10T15:32:18;3.80;;;1.70;;
50301;SDS011;36550;50.472;19.744;2023-05-10T15:36:03;2.60;;;1.70;;
50301;SDS011;36550;50.472;19.744;2023-05-10T15:39:46;6.10;;;1.70;;
50301;SDS011;36550;50.472;19.744;2023-05-10T15:43:31;2.50;;;1.80;;
50301;SDS011;36550;50.472;19.744;2023-05-10T15:47:17;2.40;;;1.70;;
50301;SDS011;36550;50.472;19.744;2023-05-10T15:50:41;3.20;;;1.60;;
50301;SDS011;36550;50.472;19.744;2023-05-10T15:54:24;6.30;;;1.70;;
50301;SDS011;36550;50.472;19.744;2023-05-10T15:58:09;2.60;;;1.70;;
50301;SDS011;36550;50.472;19.744;2023-05-10T16:01:52;3.40;;;1.80;;
50301;SDS011;36550;50.472;19.744;2023-05-10T16:05:37;4.20;;;1.80;;
50301;SDS011;36550;50.472;19.744;2023-05-10T16:09:21;2.90;;;1.60;;
50301;SDS011;36550;50.472;19.744;2023-05-10T16:13:08;4.10;;;1.90;;
50301;SDS011;36550;50.472;19.744;2023-05-10T16:16:52;6.50;;;2.00;;
50301;SDS011;36550;50.472;19.744;2023-05-10T16:20:37;3.50;;;1.70;;
50301;SDS011;36550;50.472;19.744;2023-05-10T16:24:21;4.20;;;1.80;;
50301;SDS011;36550;50.472;19.744;2023-05-10T16:28:05;4.20;;;1.70;;
50301;SDS011;36550;50.472;19.744;2023-05-10T16:31:49;7.70;;;1.90;;
50301;SDS011;36550;50.472;19.744;2023-05-10T16:35:33;3.90;;;1.70;;
50301;SDS011;36550;50.472;19.744;2023-05-10T16:38:57;2.80;;;1.60;;
50301;SDS011;36550;50.472;19.744;2023-05-10T16:42:42;8.60;;;1.80;;
50301;SDS011;36550;50.472;19.744;2023-05-10T16:46:25;3.00;;;1.70;;
50301;SDS011;36550;50.472;19.744;2023-05-10T16:50:09;3.50;;;1.60;;
50301;SDS011;36550;50.472;19.744;2023-05-10T16:53:53;3.90;;;1.70;;
50301;SDS011;36550;50.472;19.744;2023-05-10T16:57:37;2.50;;;1.60;;
50301;SDS011;36550;50.472;19.744;2023-05-10T17:01:21;5.50;;;1.90;;
50301;SDS011;36550;50.472;19.744;2023-05-10T17:05:05;4.30;;;1.70;;
50301;SDS011;36550;50.472;19.744;2023-05-10T17:08:44;4.70;;;1.80;;
50301;SDS011;36550;50.472;19.744;2023-05-10T17:12:28;4.40;;;1.90;;
50301;SDS011;36550;50.472;19.744;2023-05-10T17:16:12;5.10;;;1.80;;
50301;SDS011;36550;50.472;19.744;2023-05-10T17:19:56;2.70;;;1.70;;
50301;SDS011;36550;50.472;19.744;2023-05-10T17:23:24;3.10;;;1.70;;
50301;SDS011;36550;50.472;19.744;2023-05-10T17:27:08;3.30;;;1.50;;
50301;SDS011;36550;50.472;19.744;2023-05-10T17:30:55;5.80;;;2.40;;
50301;SDS011;36550;50.472;19.744;2023-05-10T17:34:39;7.70;;;1.90;;
50301;SDS011;36550;50.472;19.744;2023-05-10T17:38:24;3.50;;;1.80;;
50301;SDS011;36550;50.472;19.744;2023-05-10T17:42:08;3.60;;;1.90;;
50301;SDS011;36550;50.472;19.744;2023-05-10T17:45:51;3.40;;;2.10;;
50301;SDS011;36550;50.472;19.744;2023-05-10T17:49:35;5.70;;;2.10;;
50301;SDS011;36550;50.472;19.744;2023-05-10T17:53:19;3.40;;;2.00;;
50301;SDS011;36550;50.472;19.744;2023-05-10T17:57:03;5.30;;;2.10;;
50301;SDS011;36550;50.472;19.744;2023-05-10T18:00:47;4.40;;;1.90;;
50301;SDS011;36550;50.472;19.744;2023-05-10T18:04:31;6.20;;;2.00;;
50301;SDS011;36550;50.472;19.744;2023-05-10T18:07:15;3.80;;;2.00;;
50301;SDS011;36550;50.472;19.744;2023-05-10T18:10:39;5.50;;;2.20;;
50301;SDS011;36550;50.472;19.744;2023-05-10T18:14:23;3.80;;;2.30;;
50301;SDS011;36550;50.472;19.744;2023-05-10T18:18:07;3.90;;;2.50;;
50301;SDS011;36550;50.472;19.744;2023-05-10T18:21:52;6.10;;;2.50;;
50301;SDS011;36550;50.472;19.744;2023-05-10T18:25:36;7.90;;;2.90;;
50301;SDS011;36550;50.472;19.744;2023-05-10T18:29:01;8.80;;;3.50;;
50301;SDS011;36550;50.472;19.744;2023-05-10T18:32:45;7.60;;;3.00;;
50301;SDS011;36550;50.472;19.744;2023-05-10T18:36:30;7.10;;;4.30;;
50301;SDS011;36550;50.472;19.744;2023-05-10T18:40:15;8.10;;;3.10;;
50301;SDS011;36550;50.472;19.744;2023-05-10T18:43:59;7.60;;;2.80;;
50301;SDS011;36550;50.472;19.744;2023-05-10T18:47:47;5.80;;;2.20;;
50301;SDS011;36550;50.472;19.744;2023-05-10T18:51:31;4.60;;;2.50;;
50301;SDS011;36550;50.472;19.744;2023-05-10T18:55:15;6.50;;;3.10;;
50301;SDS011;36550;50.472;19.744;2023-05-10T18:59:00;9.90;;;3.80;;
50301;SDS011;36550;50.472;19.744;2023-05-10T19:02:45;8.40;;;3.40;;
50301;SDS011;36550;50.472;19.744;2023-05-10T19:06:30;7.50;;;3.20;;
50301;SDS011;36550;50.472;19.744;2023-05-10T19:10:14;7.20;;;3.70;;
50301;SDS011;36550;50.472;19.744;2023-05-10T19:13:59;7.80;;;3.60;;
50301;SDS011;36550;50.472;19.744;2023-05-10T19:17:42;9.00;;;5.30;;
50301;SDS011;36550;50.472;19.744;2023-05-10T19:21:27;10.60;;;5.00;;
50301;SDS011;36550;50.472;19.744;2023-05-10T19:25:11;11.60;;;5.00;;
50301;SDS011;36550;50.472;19.744;2023-05-10T19:28:38;8.90;;;4.60;;
50301;SDS011;36550;50.472;19.744;2023-05-10T19:32:22;6.90;;;3.80;;
50301;SDS011;36550;50.472;19.744;2023-05-10T19:36:07;9.10;;;4.20;;
50301;SDS011;36550;50.472;19.744;2023-05-10T19:39:52;8.60;;;4.00;;
50301;SDS011;36550;50.472;19.744;2023-05-10T19:43:37;8.20;;;4.00;;
50301;SDS011;36550;50.472;19.744;2023-05-10T19:47:21;5.70;;;3.90;;
50301;SDS011;36550;50.472;19.744;2023-05-10T19:51:05;12.10;;;4.70;;
50301;SDS011;36550;50.472;19.744;2023-05-10T19:54:53;12.50;;;3.90;;
50301;SDS011;36550;50.472;19.744;2023-05-10T19:58:37;8.50;;;3.60;;
50301;SDS011;36550;50.472;19.744;2023-05-10T20:02:21;9.00;;;4.40;;
50301;SDS011;36550;50.472;19.744;2023-05-10T20:06:06;7.40;;;3.30;;
50301;SDS011;36550;50.472;19.744;2023-05-10T20:09:50;13.70;;;5.30;;
50301;SDS011;36550;50.472;19.744;2023-05-10T20:13:35;6.60;;;3.10;;
50301;SDS011;36550;50.472;19.744;2023-05-10T20:16:59;5.20;;;3.00;;
50301;SDS011;36550;50.472;19.744;2023-05-10T20:20:44;8.60;;;4.10;;
50301;SDS011;36550;50.472;19.744;2023-05-10T20:24:29;12.40;;;5.20;;
50301;SDS011;36550;50.472;19.744;2023-05-10T20:28:13;11.70;;;4.80;;
50301;SDS011;36550;50.472;19.744;2023-05-10T20:31:58;8.00;;;3.70;;
50301;SDS011;36550;50.472;19.744;2023-05-10T20:35:42;7.30;;;3.00;;
50301;SDS011;36550;50.472;19.744;2023-05-10T20:39:26;5.30;;;2.70;;
50301;SDS011;36550;50.472;19.744;2023-05-10T20:43:11;7.70;;;3.50;;
50301;SDS011;36550;50.472;19.744;2023-05-10T20:46:56;7.80;;;3.70;;
50301;SDS011;36550;50.472;19.744;2023-05-10T20:50:41;5.30;;;3.00;;
50301;SDS011;36550;50.472;19.744;2023-05-10T20:54:25;4.20;;;2.60;;
50301;SDS011;36550;50.472;19.744;2023-05-10T20:58:10;5.80;;;2.50;;
50301;SDS011;36550;50.472;19.744;2023-05-10T21:01:55;4.20;;;2.50;;
50301;SDS011;36550;50.472;19.744;2023-05-10T21:05:39;8.50;;;3.00;;
50301;SDS011;36550;50.472;19.744;2023-05-10T21:09:24;9.00;;;3.50;;
50301;SDS011;36550;50.472;19.744;2023-05-10T21:13:08;9.70;;;3.30;;
50301;SDS011;36550;50.472;19.744;2023-05-10T21:16:53;9.70;;;3.50;;
50301;SDS011;36550;50.472;19.744;2023-05-10T21:20:38;6.50;;;3.20;;
50301;SDS011;36550;50.472;19.744;2023-05-10T21:24:05;8.40;;;3.60;;
50301;SDS011;36550;50.472;19.744;2023-05-10T21:27:50;6.50;;;3.30;;
50301;SDS011;36550;50.472;19.744;2023-05-10T21:31:35;7.10;;;3.50;;
50301;SDS011;36550;50.472;19.744;2023-05-10T21:35:19;7.50;;;3.10;;
50301;SDS011;36550;50.472;19.744;2023-05-10T21:39:04;6.20;;;3.20;;
50301;SDS011;36550;50.472;19.744;2023-05-10T21:42:48;5.90;;;3.50;;
50301;SDS011;36550;50.472;19.744;2023-05-10T21:46:32;12.50;;;4.20;;
50301;SDS011;36550;50.472;19.744;2023-05-10T21:50:17;9.50;;;3.90;;
50301;SDS011;36550;50.472;19.744;2023-05-10T21:53:45;7.30;;;3.10;;
50301;SDS011;36550;50.472;19.744;2023-05-10T21:57:30;6.80;;;3.30;;
50301;SDS011;36550;50.472;19.744;2023-05-10T22:01:14;6.80;;;3.40;;
50301;SDS011;36550;50.472;19.744;2023-05-10T22:04:59;8.00;;;3.60;;
50301;SDS011;36550;50.472;19.744;2023-05-10T22:08:42;6.10;;;3.60;;
50301;SDS011;36550;50.472;19.744;2023-05-10T22:12:27;7.50;;;3.80;;
50301;SDS011;36550;50.472;19.744;2023-05-10T22:16:11;8.50;;;4.20;;
50301;SDS011;36550;50.472;19.744;2023-05-10T22:19:55;9.70;;;4.20;;
50301;SDS011;36550;50.472;19.744;2023-05-10T22:23:40;7.10;;;3.60;;
50301;SDS011;36550;50.472;19.744;2023-05-10T22:27:24;9.70;;;4.00;;
50301;SDS011;36550;50.472;19.744;2023-05-10T22:31:09;7.00;;;3.20;;
50301;SDS011;36550;50.472;19.744;2023-05-10T22:34:53;9.60;;;3.10;;